createdAt,value
2017-01-17T11:38:48.284Z,924.02
2017-01-17T11:39:03.041Z,924.02
2017-01-17T11:39:17.779Z,924.02
2017-01-17T11:39:32.532Z,924.04
2017-01-17T11:39:47.191Z,924.03
2017-01-17T11:40:01.960Z,924.01
2017-01-17T11:40:16.682Z,924.05
2017-01-17T11:40:31.522Z,924.07
2017-01-17T11:40:46.162Z,924.06
2017-01-17T11:41:00.892Z,924.01
2017-01-17T11:41:15.451Z,924.03
2017-01-17T11:41:30.123Z,924.04
2017-01-17T11:41:44.760Z,924.02
2017-01-17T11:41:59.381Z,924.03
2017-01-17T11:42:14.207Z,924.03
2017-01-17T11:42:28.971Z,924.02
2017-01-17T11:42:43.807Z,924
2017-01-17T11:42:58.695Z,924.01
2017-01-17T11:43:13.533Z,924.05
2017-01-17T11:43:28.350Z,924.03
2017-01-17T11:43:43.140Z,924.03
2017-01-17T11:43:57.820Z,924.04
2017-01-17T11:44:12.647Z,924
2017-01-17T11:44:27.272Z,924
2017-01-17T11:44:42.045Z,924.01
2017-01-17T11:44:56.791Z,924.04
2017-01-17T11:45:11.405Z,924
2017-01-17T11:45:26.216Z,924
2017-01-17T11:45:40.932Z,924.06
2017-01-17T11:45:55.572Z,924.03
2017-01-17T11:46:10.086Z,924
2017-01-17T11:46:24.780Z,924.01
2017-01-17T11:46:39.401Z,924.03
2017-01-17T11:46:54.210Z,924.06
2017-01-17T11:47:08.906Z,924.08
2017-01-17T11:47:23.550Z,924.02
2017-01-17T11:47:38.173Z,923.99
2017-01-17T11:47:53.111Z,924.01
2017-01-17T11:48:07.785Z,924
2017-01-17T11:48:22.562Z,924.05
2017-01-17T11:48:37.299Z,924.07
2017-01-17T11:48:52.025Z,924.1
2017-01-17T11:49:06.710Z,924.08
2017-01-17T11:49:21.502Z,924.02
2017-01-17T11:49:36.125Z,924.1
2017-01-17T11:49:50.957Z,924.07
2017-01-17T11:50:05.648Z,924.04
2017-01-17T11:50:20.268Z,924.04
2017-01-17T11:50:34.980Z,924.03
2017-01-17T11:50:49.641Z,924.04
2017-01-17T11:51:04.241Z,924.1
2017-01-17T11:51:18.963Z,924.08
2017-01-17T11:51:33.758Z,924
2017-01-17T11:51:48.536Z,924.06
2017-01-17T11:52:03.323Z,924.04
2017-01-17T11:52:18.197Z,924.1
2017-01-17T11:52:32.758Z,924.13
2017-01-17T11:52:47.454Z,924.06
2017-01-17T11:53:02.243Z,924.12
2017-01-17T11:53:16.874Z,924.1
2017-01-17T11:53:31.629Z,924.07
2017-01-17T11:53:46.394Z,924.08
2017-01-17T11:54:01.158Z,924.1
2017-01-17T11:54:16.102Z,924.08
2017-01-17T11:54:30.765Z,924.12
2017-01-17T11:54:45.576Z,924.14
2017-01-17T11:55:00.222Z,924.11
2017-01-17T11:55:15.006Z,924.1
2017-01-17T11:55:29.763Z,924.07
2017-01-17T11:55:44.589Z,924.09
2017-01-17T11:55:59.337Z,924.12
2017-01-17T11:56:14.126Z,924.12
2017-01-17T11:56:29.028Z,924.09
2017-01-17T11:56:43.799Z,924.12
2017-01-17T11:56:58.637Z,924.08
2017-01-17T11:57:13.320Z,924.06
2017-01-17T11:57:27.996Z,924.05
2017-01-17T11:57:42.761Z,924.04
2017-01-17T11:57:57.630Z,924.1
2017-01-17T11:58:12.274Z,924.1
2017-01-17T11:58:27.006Z,924.02
2017-01-17T11:58:41.687Z,924.06
2017-01-17T11:58:56.573Z,924.02
2017-01-17T11:59:11.188Z,924.07
2017-01-17T11:59:25.909Z,924.02
2017-01-17T11:59:40.709Z,924.05
2017-01-17T11:59:55.369Z,924.06
2017-01-17T12:00:09.999Z,924.08
2017-01-17T12:00:24.720Z,924.04
2017-01-17T12:00:39.396Z,924.01
2017-01-17T12:00:54.417Z,923.97
2017-01-17T12:01:09.104Z,924.02
2017-01-17T12:01:23.680Z,923.97
2017-01-17T12:01:38.317Z,923.97
2017-01-17T12:01:52.903Z,924
2017-01-17T12:02:07.493Z,923.99
2017-01-17T12:02:22.200Z,924.07
2017-01-17T12:02:36.928Z,924.03
2017-01-17T12:02:51.658Z,924.05
2017-01-17T12:03:06.316Z,924.03
2017-01-17T12:03:21.095Z,924
2017-01-17T12:03:35.728Z,924.02
2017-01-17T12:03:50.440Z,924.04
2017-01-17T12:04:05.159Z,924
2017-01-17T12:04:19.891Z,923.99
2017-01-17T12:04:34.635Z,923.98
2017-01-17T12:04:49.279Z,923.99
2017-01-17T12:05:03.902Z,924.03
2017-01-17T12:05:18.697Z,923.96
2017-01-17T12:05:33.423Z,923.97
2017-01-17T12:05:48.238Z,924
2017-01-17T12:06:02.988Z,923.96
2017-01-17T12:06:17.704Z,923.94
2017-01-17T12:06:32.514Z,923.91
2017-01-17T12:06:47.347Z,923.97
2017-01-17T12:07:02.104Z,924.01
2017-01-17T12:07:16.809Z,924.03
2017-01-17T12:07:31.503Z,924
2017-01-17T12:07:46.207Z,924.03
2017-01-17T12:08:00.890Z,924.01
2017-01-17T12:08:15.622Z,923.92
2017-01-17T12:08:30.169Z,923.95
2017-01-17T12:08:44.971Z,923.97
2017-01-17T12:08:59.616Z,923.97
2017-01-17T12:09:14.323Z,923.92
2017-01-17T12:09:29.289Z,923.94
2017-01-17T12:09:44.051Z,923.96
2017-01-17T12:09:58.580Z,923.99
2017-01-17T12:10:13.387Z,923.97
2017-01-17T12:10:27.903Z,923.94
2017-01-17T12:10:42.490Z,923.92
2017-01-17T12:10:57.333Z,924.02
2017-01-17T12:11:11.946Z,924
2017-01-17T12:11:26.607Z,923.93
2017-01-17T12:11:41.433Z,923.97
2017-01-17T12:11:56.189Z,924.04
2017-01-17T12:12:10.764Z,924
2017-01-17T12:12:25.421Z,924.01
2017-01-17T12:12:40.101Z,924.03
2017-01-17T12:12:54.806Z,924.09
2017-01-17T12:13:09.433Z,923.98
2017-01-17T12:13:24.210Z,924.04
2017-01-17T12:13:38.881Z,924.07
2017-01-17T12:13:53.691Z,924.08
2017-01-17T12:14:08.426Z,924.07
2017-01-17T12:14:23.048Z,924.09
2017-01-17T12:14:37.593Z,924.02
2017-01-17T12:14:52.347Z,924.1
2017-01-17T12:15:07.026Z,924.04
2017-01-17T12:15:21.762Z,924.08
2017-01-17T12:15:36.768Z,924.05
2017-01-17T12:15:51.455Z,924.04
2017-01-17T12:16:06.236Z,924
2017-01-17T12:16:20.903Z,924.09
2017-01-17T12:16:35.665Z,924.06
2017-01-17T12:16:50.283Z,924.05
2017-01-17T12:17:04.933Z,924.09
2017-01-17T12:17:19.854Z,924.04
2017-01-17T12:17:34.667Z,924.05
2017-01-17T12:17:49.263Z,924.04
2017-01-17T12:18:03.825Z,924.04
2017-01-17T12:18:18.536Z,924.02
2017-01-17T12:18:33.253Z,924.05
2017-01-17T12:18:48.030Z,923.98
2017-01-17T12:19:02.804Z,924.02
2017-01-17T12:19:17.436Z,924.04
2017-01-17T12:19:32.232Z,924
2017-01-17T12:19:46.979Z,924
2017-01-17T12:20:01.654Z,924.06
2017-01-17T12:20:16.203Z,924.03
2017-01-17T12:20:30.912Z,924.11
2017-01-17T12:20:45.670Z,924.13
2017-01-17T12:21:00.408Z,924.1
2017-01-17T12:21:15.084Z,924.1
2017-01-17T12:21:29.740Z,924.11
2017-01-17T12:21:44.526Z,924.07
2017-01-17T12:21:59.363Z,924.03
2017-01-17T12:22:13.934Z,924.05
2017-01-17T12:22:28.531Z,923.99
2017-01-17T12:22:43.305Z,924.01
2017-01-17T12:22:58.091Z,923.98
2017-01-17T12:23:12.784Z,924.05
2017-01-17T12:23:27.381Z,924.1
2017-01-17T12:23:41.948Z,924.05
2017-01-17T12:23:56.618Z,924.12
2017-01-17T12:24:11.279Z,924.12
2017-01-17T12:24:26.156Z,924.11
2017-01-17T12:24:40.857Z,924.08
2017-01-17T12:24:55.544Z,924.1
2017-01-17T12:25:10.206Z,924.08
2017-01-17T12:25:24.798Z,924.12
2017-01-17T12:25:39.509Z,924.06
2017-01-17T12:25:54.388Z,924.05
2017-01-17T12:26:09.216Z,924.06
2017-01-17T12:26:23.885Z,924.07
2017-01-17T12:26:38.543Z,924.01
2017-01-17T12:26:53.425Z,924.04
2017-01-17T12:27:08.181Z,924.02
2017-01-17T12:27:23.076Z,924.03
2017-01-17T12:27:37.867Z,924.08
2017-01-17T12:27:52.559Z,924.09
2017-01-17T12:28:07.199Z,924.11
2017-01-17T12:28:21.903Z,924.08
2017-01-17T12:28:36.598Z,924.07
2017-01-17T12:28:51.391Z,924.04
2017-01-17T12:29:06.094Z,924.02
2017-01-17T12:29:20.779Z,924.01
2017-01-17T12:29:35.363Z,924
2017-01-17T12:29:49.967Z,924.04
2017-01-17T12:30:04.469Z,924.07
2017-01-17T12:30:19.313Z,924.05
2017-01-17T12:30:34.022Z,924.06
2017-01-17T12:30:48.865Z,924.04
2017-01-17T12:31:03.731Z,924.03
2017-01-17T12:31:18.468Z,924.1
2017-01-17T12:31:33.387Z,924
2017-01-17T12:31:48.248Z,923.99
2017-01-17T12:32:03.009Z,924
2017-01-17T12:32:17.777Z,924
2017-01-17T12:32:32.540Z,924.03
2017-01-17T12:32:47.040Z,924.04
2017-01-17T12:33:01.796Z,924.08
2017-01-17T12:33:16.611Z,924.02
2017-01-17T12:33:31.344Z,924.04
2017-01-17T12:33:46.111Z,924.06
2017-01-17T12:34:00.858Z,924.09
2017-01-17T12:34:15.673Z,924.06
2017-01-17T12:34:30.354Z,924.14
2017-01-17T12:34:45.006Z,924.14
2017-01-17T12:34:59.591Z,924.16
2017-01-17T12:35:14.338Z,924.12
2017-01-17T12:35:29.102Z,924.1
2017-01-17T12:35:43.857Z,924.18
2017-01-17T12:35:58.453Z,924.09
2017-01-17T12:36:13.120Z,924.11
2017-01-17T12:36:27.757Z,924.15
2017-01-17T12:36:42.516Z,924.12
2017-01-17T12:36:57.307Z,924.14
2017-01-17T12:37:11.886Z,924.08
2017-01-17T12:37:26.753Z,924.11
2017-01-17T12:37:41.427Z,924.12
2017-01-17T12:37:56.142Z,924.17
2017-01-17T12:38:10.877Z,924.16
2017-01-17T12:38:25.677Z,924.13
2017-01-17T12:38:40.288Z,924.19
2017-01-17T12:38:54.886Z,924.25
2017-01-17T12:39:09.474Z,924.15
2017-01-17T12:39:24.297Z,924.13
2017-01-17T12:39:39.027Z,924.18
2017-01-17T12:39:53.574Z,924.18
2017-01-17T12:40:08.331Z,924.19
2017-01-17T12:40:22.959Z,924.04
2017-01-17T12:40:37.666Z,924.14
2017-01-17T12:40:52.354Z,924.15
2017-01-17T12:41:07.025Z,924.19
2017-01-17T12:41:21.780Z,924.14
2017-01-17T12:41:36.490Z,924.13
2017-01-17T12:41:51.124Z,924.22
2017-01-17T12:42:05.724Z,924.12
2017-01-17T12:42:20.289Z,924.14
2017-01-17T12:42:35.050Z,924.1
2017-01-17T12:42:49.697Z,924.16
2017-01-17T12:43:04.369Z,924.18
2017-01-17T12:43:19.044Z,924.21
2017-01-17T12:43:33.860Z,924.2
2017-01-17T12:43:48.408Z,924.14
2017-01-17T12:44:03.127Z,924.13
2017-01-17T12:44:17.891Z,924.1
2017-01-17T12:44:32.469Z,924.14
2017-01-17T12:44:47.152Z,924.15
2017-01-17T12:45:01.926Z,924.11
2017-01-17T12:45:16.592Z,924.14
2017-01-17T12:45:31.355Z,924.06
2017-01-17T12:45:45.921Z,924.07
2017-01-17T12:46:00.739Z,924.02
2017-01-17T12:46:15.239Z,924.09
2017-01-17T12:46:29.965Z,924.1
2017-01-17T12:46:44.824Z,924.07
2017-01-17T12:46:59.679Z,924.09
2017-01-17T12:47:14.152Z,924.01
2017-01-17T12:47:28.749Z,924.02
2017-01-17T12:47:43.346Z,924.08
2017-01-17T12:47:58.167Z,924.04
2017-01-17T12:48:12.833Z,923.98
2017-01-17T12:48:27.449Z,924.03
2017-01-17T12:48:41.990Z,923.95
2017-01-17T12:48:56.570Z,924
2017-01-17T12:49:11.220Z,923.98
2017-01-17T12:49:25.789Z,924.01
2017-01-17T12:49:40.556Z,924.02
2017-01-17T12:49:55.156Z,924.01
2017-01-17T12:50:09.781Z,924
2017-01-17T12:50:24.447Z,923.98
2017-01-17T12:50:39.131Z,924.03
2017-01-17T12:50:53.848Z,924
2017-01-17T12:51:08.470Z,924.01
2017-01-17T12:51:23.308Z,924
2017-01-17T12:51:38.033Z,924.03
2017-01-17T12:51:52.546Z,924.05
2017-01-17T12:52:07.137Z,924.05
2017-01-17T12:52:21.880Z,924.03
2017-01-17T12:52:36.559Z,924.04
2017-01-17T12:52:51.347Z,924.02
2017-01-17T12:53:06.045Z,924.05
2017-01-17T12:53:20.634Z,924.03
2017-01-17T12:53:35.245Z,923.99
2017-01-17T12:53:49.716Z,924.02
2017-01-17T12:54:04.511Z,924.06
2017-01-17T12:54:19.243Z,924
2017-01-17T12:54:33.916Z,923.98
2017-01-17T12:54:49.079Z,923.97
2017-01-17T12:55:03.699Z,923.98
2017-01-17T12:55:18.290Z,924
2017-01-17T12:55:33.073Z,923.99
2017-01-17T12:55:47.757Z,923.91
2017-01-17T12:56:02.542Z,923.94
2017-01-17T12:56:17.223Z,923.98
2017-01-17T12:56:32.053Z,923.93
2017-01-17T12:56:46.837Z,923.93
2017-01-17T12:57:01.396Z,924
2017-01-17T12:57:16.146Z,923.99
2017-01-17T12:57:31.069Z,924.02
2017-01-17T12:57:45.677Z,923.96
2017-01-17T12:58:00.213Z,923.93
2017-01-17T12:58:14.866Z,923.98
2017-01-17T12:58:29.544Z,923.96
2017-01-17T12:58:44.142Z,923.92
2017-01-17T12:58:58.933Z,923.99
2017-01-17T12:59:13.723Z,923.96
2017-01-17T12:59:28.516Z,923.94
2017-01-17T12:59:43.238Z,923.92
2017-01-17T12:59:58.079Z,923.91
2017-01-17T13:00:12.879Z,923.94
2017-01-17T13:00:27.604Z,923.93
2017-01-17T13:00:42.338Z,923.93
2017-01-17T13:00:57.212Z,923.91
2017-01-17T13:01:12.065Z,923.86
2017-01-17T13:01:26.756Z,923.86
2017-01-17T13:01:41.535Z,923.92
2017-01-17T13:01:56.257Z,923.91
2017-01-17T13:02:11.105Z,923.89
2017-01-17T13:02:25.658Z,923.95
2017-01-17T13:02:40.473Z,923.9
2017-01-17T13:02:55.136Z,923.91
2017-01-17T13:03:09.752Z,923.91
2017-01-17T13:03:24.466Z,923.87
2017-01-17T13:03:39.145Z,923.85
2017-01-17T13:03:53.950Z,923.86
2017-01-17T13:04:08.637Z,923.85
2017-01-17T13:04:23.211Z,923.86
2017-01-17T13:04:38.029Z,923.86
2017-01-17T13:04:52.804Z,923.82
2017-01-17T13:05:07.639Z,923.83
2017-01-17T13:05:22.425Z,923.83
2017-01-17T13:05:37.088Z,923.74
2017-01-17T13:05:51.832Z,923.8
2017-01-17T13:06:06.404Z,923.86
2017-01-17T13:06:21.224Z,923.8
2017-01-17T13:06:36.072Z,923.76
2017-01-17T13:06:50.839Z,923.77
2017-01-17T13:07:05.608Z,923.76
2017-01-17T13:07:20.298Z,923.78
2017-01-17T13:07:35.039Z,923.76
2017-01-17T13:07:49.673Z,923.74
2017-01-17T13:08:04.418Z,923.75
2017-01-17T13:08:19.022Z,923.78
2017-01-17T13:08:33.762Z,923.79
2017-01-17T13:08:48.455Z,923.75
2017-01-17T13:09:03.490Z,923.82
2017-01-17T13:09:18.196Z,923.78
2017-01-17T13:09:32.962Z,923.77
2017-01-17T13:09:48.007Z,923.78
2017-01-17T13:10:02.818Z,923.8
2017-01-17T13:10:17.470Z,923.76
2017-01-17T13:10:32.170Z,923.79
2017-01-17T13:10:47.065Z,923.76
2017-01-17T13:11:01.853Z,923.82
2017-01-17T13:11:16.616Z,923.82
2017-01-17T13:11:31.454Z,923.76
2017-01-17T13:11:46.194Z,923.79
2017-01-17T13:12:00.850Z,923.79
2017-01-17T13:12:15.506Z,923.76
2017-01-17T13:12:30.319Z,923.8
2017-01-17T13:12:45.035Z,923.8
2017-01-17T13:12:59.857Z,923.83
2017-01-17T13:13:14.570Z,923.8
2017-01-17T13:13:29.230Z,923.82
2017-01-17T13:13:43.922Z,923.82
2017-01-17T13:13:58.841Z,923.81
2017-01-17T13:14:13.613Z,923.77
2017-01-17T13:14:28.241Z,923.8
2017-01-17T13:14:42.934Z,923.8
2017-01-17T13:14:57.637Z,923.81
2017-01-17T13:15:12.331Z,923.74
2017-01-17T13:15:26.992Z,923.77
2017-01-17T13:15:41.818Z,923.81
2017-01-17T13:15:56.675Z,923.8
2017-01-17T13:16:11.277Z,923.85
2017-01-17T13:16:26.085Z,923.84
2017-01-17T13:16:40.810Z,923.83
2017-01-17T13:16:55.501Z,923.8
2017-01-17T13:17:10.373Z,923.8
2017-01-17T13:17:25.200Z,923.83
2017-01-17T13:17:40.020Z,923.9
2017-01-17T13:17:54.744Z,923.84
2017-01-17T13:18:09.581Z,923.79
2017-01-17T13:18:24.374Z,923.76
2017-01-17T13:18:39.065Z,923.72
2017-01-17T13:18:53.766Z,923.78
2017-01-17T13:19:08.424Z,923.76
2017-01-17T13:19:23.123Z,923.75
2017-01-17T13:19:37.687Z,923.74
2017-01-17T13:19:52.486Z,923.79
2017-01-17T13:20:07.369Z,923.78
2017-01-17T13:20:22.262Z,923.79
2017-01-17T13:20:36.976Z,923.85
2017-01-17T13:20:51.682Z,923.82
2017-01-17T13:21:06.363Z,923.8
2017-01-17T13:21:21.135Z,923.79
2017-01-17T13:21:35.730Z,923.78
2017-01-17T13:21:50.474Z,923.86
2017-01-17T13:22:05.076Z,923.83
2017-01-17T13:22:19.709Z,923.85
2017-01-17T13:22:34.407Z,923.81
2017-01-17T13:22:49.322Z,923.86
2017-01-17T13:23:04.104Z,923.85
2017-01-17T13:23:18.863Z,923.83
2017-01-17T13:23:33.508Z,923.84
2017-01-17T13:23:48.207Z,923.81
2017-01-17T13:24:02.962Z,923.83
2017-01-17T13:24:17.618Z,923.85
2017-01-17T13:24:32.353Z,923.81
2017-01-17T13:24:47.100Z,923.75
2017-01-17T13:25:02.002Z,923.82
2017-01-17T13:25:16.759Z,923.81
2017-01-17T13:25:31.492Z,923.85
2017-01-17T13:25:46.242Z,923.86
2017-01-17T13:26:00.843Z,923.85
2017-01-17T13:26:15.497Z,923.81
2017-01-17T13:26:30.079Z,923.87
2017-01-17T13:26:44.791Z,923.82
2017-01-17T13:26:59.555Z,923.8
2017-01-17T13:27:14.313Z,923.88
2017-01-17T13:27:29.097Z,923.84
2017-01-17T13:27:43.978Z,923.82
2017-01-17T13:27:58.702Z,923.83
2017-01-17T13:28:13.462Z,923.84
2017-01-17T13:28:28.271Z,923.86
2017-01-17T13:28:43.061Z,923.83
2017-01-17T13:28:57.781Z,923.84
2017-01-17T13:29:12.428Z,923.83
2017-01-17T13:29:27.218Z,923.84
2017-01-17T13:29:41.984Z,923.91
2017-01-17T13:29:56.768Z,923.85
2017-01-17T13:30:11.568Z,923.86
2017-01-17T13:30:26.442Z,923.8
2017-01-17T13:30:41.316Z,923.79
2017-01-17T13:30:56.174Z,923.76
2017-01-17T13:31:10.771Z,923.81
2017-01-17T13:31:25.515Z,923.76
2017-01-17T13:31:40.465Z,923.86
2017-01-17T13:31:55.198Z,923.87
2017-01-17T13:32:09.789Z,923.87
2017-01-17T13:32:24.514Z,923.83
2017-01-17T13:32:39.217Z,923.8
2017-01-17T13:32:53.997Z,923.84
2017-01-17T13:33:08.840Z,923.83
2017-01-17T13:33:23.598Z,923.81
2017-01-17T13:33:38.361Z,923.83
2017-01-17T13:33:53.145Z,923.86
2017-01-17T13:34:07.845Z,923.89
2017-01-17T13:34:22.572Z,923.88
2017-01-17T13:34:37.214Z,923.85
2017-01-17T13:34:51.874Z,923.81
2017-01-17T13:35:06.543Z,923.77
2017-01-17T13:35:21.195Z,923.76
2017-01-17T13:35:35.917Z,923.82
2017-01-17T13:35:50.620Z,923.75
2017-01-17T13:36:05.228Z,923.73
2017-01-17T13:36:19.981Z,923.78
2017-01-17T13:36:34.718Z,923.84
2017-01-17T13:36:49.558Z,923.81
2017-01-17T13:37:04.330Z,923.87
2017-01-17T13:37:19.083Z,923.83
2017-01-17T13:37:33.796Z,923.77
2017-01-17T13:37:48.577Z,923.81
2017-01-17T13:38:03.407Z,923.79
2017-01-17T13:38:18.258Z,923.69
2017-01-17T13:38:33.104Z,923.82
2017-01-17T13:38:47.635Z,923.74
2017-01-17T13:39:02.180Z,923.73
2017-01-17T13:39:16.871Z,923.85
2017-01-17T13:39:31.736Z,923.82
2017-01-17T13:39:46.332Z,923.82
2017-01-17T13:40:01.195Z,923.75
2017-01-17T13:40:15.952Z,923.86
2017-01-17T13:40:30.683Z,923.75
2017-01-17T13:40:45.430Z,923.75
2017-01-17T13:41:00.133Z,923.79
2017-01-17T13:41:14.856Z,923.78
2017-01-17T13:41:29.437Z,923.79
2017-01-17T13:41:44.165Z,923.8
2017-01-17T13:41:58.807Z,923.78
2017-01-17T13:42:13.610Z,923.79
2017-01-17T13:42:28.428Z,923.81
2017-01-17T13:42:43.156Z,923.83
2017-01-17T13:42:57.711Z,923.83
2017-01-17T13:43:12.549Z,923.84
2017-01-17T13:43:27.261Z,923.87
2017-01-17T13:43:41.807Z,923.85
2017-01-17T13:43:56.380Z,923.84
2017-01-17T13:44:11.267Z,923.85
2017-01-17T13:44:25.951Z,923.84
2017-01-17T13:44:40.574Z,923.85
2017-01-17T13:44:55.301Z,923.78
2017-01-17T13:45:10.091Z,923.89
2017-01-17T13:45:24.673Z,923.82
2017-01-17T13:45:39.326Z,923.84
2017-01-17T13:45:53.848Z,923.79
2017-01-17T13:46:08.615Z,923.83
2017-01-17T13:46:23.418Z,923.85
2017-01-17T13:46:38.188Z,923.83
2017-01-17T13:46:52.977Z,923.86
2017-01-17T13:47:07.867Z,923.89
2017-01-17T13:47:22.470Z,923.86
2017-01-17T13:47:37.087Z,923.93
2017-01-17T13:47:51.873Z,923.89
2017-01-17T13:48:06.596Z,923.87
2017-01-17T13:48:21.188Z,923.86
2017-01-17T13:48:35.867Z,923.8
2017-01-17T13:48:50.555Z,923.88
2017-01-17T13:49:05.278Z,923.87
2017-01-17T13:49:20.109Z,923.95
2017-01-17T13:49:34.857Z,923.84
2017-01-17T13:49:49.622Z,923.89
2017-01-17T13:50:04.472Z,923.88
2017-01-17T13:50:19.236Z,923.85
2017-01-17T13:50:33.956Z,923.97
2017-01-17T13:50:48.709Z,923.99
2017-01-17T13:51:03.513Z,923.98
2017-01-17T13:51:18.185Z,924.05
2017-01-17T13:51:32.677Z,924.01
2017-01-17T13:51:47.238Z,923.98
2017-01-17T13:52:01.954Z,924.01
2017-01-17T13:52:16.723Z,923.99
2017-01-17T13:52:31.326Z,924.04
2017-01-17T13:52:45.969Z,924
2017-01-17T13:53:00.739Z,924.03
2017-01-17T13:53:15.373Z,924
2017-01-17T13:53:30.035Z,924
2017-01-17T13:53:44.601Z,923.98
2017-01-17T13:53:59.313Z,924.02
2017-01-17T13:54:14.106Z,924
2017-01-17T13:54:28.898Z,923.97
2017-01-17T13:54:43.549Z,923.98
2017-01-17T13:54:58.343Z,923.97
2017-01-17T13:55:13.540Z,924.04
2017-01-17T13:55:28.140Z,924.06
2017-01-17T13:55:42.745Z,924.07
2017-01-17T13:55:57.591Z,923.99
2017-01-17T13:56:12.285Z,924.04
2017-01-17T13:56:26.884Z,924.06
2017-01-17T13:56:41.716Z,924.07
2017-01-17T13:56:56.306Z,924.02
2017-01-17T13:57:11.177Z,924.14
2017-01-17T13:57:25.935Z,924.05
2017-01-17T13:57:40.598Z,924.1
2017-01-17T13:57:55.266Z,924
2017-01-17T13:58:09.927Z,924.11
2017-01-17T13:58:24.545Z,923.98
2017-01-17T13:58:39.326Z,924.01
2017-01-17T13:58:54.100Z,924.05
2017-01-17T13:59:08.901Z,924.01
2017-01-17T13:59:23.580Z,924.08
2017-01-17T13:59:38.234Z,924.05
2017-01-17T13:59:52.910Z,924.09
2017-01-17T14:00:07.515Z,924.08
2017-01-17T14:00:22.225Z,924.13
2017-01-17T14:00:37.023Z,924.13
2017-01-17T14:00:51.656Z,924.08
2017-01-17T14:01:06.252Z,924.12
2017-01-17T14:01:21.068Z,924.07
2017-01-17T14:01:35.870Z,924.15
2017-01-17T14:01:50.634Z,924.18
2017-01-17T14:02:05.412Z,924.07
2017-01-17T14:02:20.152Z,924.13
2017-01-17T14:02:34.697Z,924.13
2017-01-17T14:02:49.527Z,924.15
2017-01-17T14:03:04.269Z,924.19
2017-01-17T14:03:18.938Z,924.15
2017-01-17T14:03:33.678Z,924.18
2017-01-17T14:03:48.491Z,924.16
2017-01-17T14:04:03.195Z,924.2
2017-01-17T14:04:17.932Z,924.18
2017-01-17T14:04:32.551Z,924.21
2017-01-17T14:04:47.160Z,924.19
2017-01-17T14:05:01.868Z,924.18
2017-01-17T14:05:16.428Z,924.19
2017-01-17T14:05:31.208Z,924.25
2017-01-17T14:05:45.939Z,924.17
2017-01-17T14:06:00.770Z,924.16
2017-01-17T14:06:15.611Z,924.26
2017-01-17T14:06:30.180Z,924.26
2017-01-17T14:06:44.893Z,924.19
2017-01-17T14:06:59.727Z,924.12
2017-01-17T14:07:14.592Z,924.22
2017-01-17T14:07:29.541Z,924.16
2017-01-17T14:07:44.209Z,924.2
2017-01-17T14:07:58.910Z,924.27
2017-01-17T14:08:13.481Z,924.28
2017-01-17T14:08:28.315Z,924.3
2017-01-17T14:08:43.386Z,924.33
2017-01-17T14:08:58.513Z,924.26
2017-01-17T14:09:13.513Z,924.3
2017-01-17T14:09:28.472Z,924.29
2017-01-17T14:09:43.531Z,924.3
2017-01-17T14:09:58.589Z,924.29
2017-01-17T14:10:14.258Z,924.21
2017-01-17T14:10:29.283Z,924.27
2017-01-17T14:10:44.416Z,924.31
2017-01-17T14:10:59.454Z,924.24
2017-01-17T14:11:15.159Z,924.28
2017-01-17T14:11:30.538Z,924.29
2017-01-17T14:11:45.612Z,924.31
2017-01-17T14:12:00.868Z,924.26
2017-01-17T14:12:15.892Z,924.34
2017-01-17T14:12:30.918Z,924.33
2017-01-17T14:12:46.009Z,924.33
2017-01-17T14:13:01.304Z,924.32
2017-01-17T14:13:16.657Z,924.32
2017-01-17T14:13:31.720Z,924.33
2017-01-17T14:13:46.844Z,924.38
2017-01-17T14:14:01.975Z,924.25
2017-01-17T14:14:16.601Z,924.33
2017-01-17T14:14:31.505Z,924.33
2017-01-17T14:14:46.325Z,924.38
2017-01-17T14:15:01.248Z,924.36
2017-01-17T14:15:16.135Z,924.39
2017-01-17T14:15:31.266Z,924.4
2017-01-17T14:15:46.248Z,924.39
2017-01-17T14:16:01.321Z,924.37
2017-01-17T14:16:16.296Z,924.37
2017-01-17T14:16:31.098Z,924.41
2017-01-17T14:16:45.961Z,924.41
2017-01-17T14:17:00.717Z,924.4
2017-01-17T14:17:15.322Z,924.38
2017-01-17T14:17:30.099Z,924.46
2017-01-17T14:17:44.919Z,924.4
2017-01-17T14:17:59.852Z,924.37
2017-01-17T14:18:14.588Z,924.38
2017-01-17T14:18:29.413Z,924.39
2017-01-17T14:18:44.125Z,924.43
2017-01-17T14:18:59.056Z,924.41
2017-01-17T14:19:14.016Z,924.42
2017-01-17T14:19:28.748Z,924.4
2017-01-17T14:19:43.740Z,924.41
2017-01-17T14:19:58.696Z,924.38
2017-01-17T14:20:13.430Z,924.34
2017-01-17T14:20:28.327Z,924.34
2017-01-17T14:20:43.192Z,924.37
2017-01-17T14:20:57.823Z,924.39
2017-01-17T14:21:12.991Z,924.38
2017-01-17T14:21:27.730Z,924.38
2017-01-17T14:21:42.452Z,924.35
2017-01-17T14:21:57.140Z,924.38
2017-01-17T14:22:12.211Z,924.38
2017-01-17T14:22:27.418Z,924.36
2017-01-17T14:22:42.244Z,924.33
2017-01-17T14:22:57.202Z,924.33
2017-01-17T14:23:12.156Z,924.37
2017-01-17T14:23:27.133Z,924.36
2017-01-17T14:23:41.860Z,924.32
2017-01-17T14:23:56.592Z,924.36
2017-01-17T14:24:11.357Z,924.37
2017-01-17T14:24:26.163Z,924.39
2017-01-17T14:24:41.020Z,924.41
2017-01-17T14:24:55.883Z,924.38
2017-01-17T14:25:10.775Z,924.41
2017-01-17T14:25:26.083Z,924.44
2017-01-17T14:25:40.616Z,924.37
2017-01-17T14:25:55.680Z,924.39
2017-01-17T14:26:10.784Z,924.37
2017-01-17T14:26:25.683Z,924.37
2017-01-17T14:26:40.545Z,924.38
2017-01-17T14:26:55.411Z,924.39
2017-01-17T14:27:10.170Z,924.34
2017-01-17T14:27:25.375Z,924.38
2017-01-17T14:27:40.491Z,924.33
2017-01-17T14:27:55.993Z,924.33
2017-01-17T14:28:10.737Z,924.33
2017-01-17T14:28:25.783Z,924.33
2017-01-17T14:28:40.535Z,924.32
2017-01-17T14:28:55.633Z,924.3
2017-01-17T14:29:10.397Z,924.34
2017-01-17T14:29:25.322Z,924.32
2017-01-17T14:29:40.388Z,924.33
2017-01-17T14:29:55.268Z,924.34
2017-01-17T14:30:09.972Z,924.37
2017-01-17T14:30:24.792Z,924.35
2017-01-17T14:30:39.703Z,924.35
2017-01-17T14:30:54.526Z,924.32
2017-01-17T14:31:09.634Z,924.34
2017-01-17T14:31:24.775Z,924.35
2017-01-17T14:31:39.672Z,924.33
2017-01-17T14:31:54.523Z,924.32
2017-01-17T14:32:09.376Z,924.31
2017-01-17T14:32:24.006Z,924.35
2017-01-17T14:32:38.502Z,924.3
2017-01-17T14:32:53.482Z,924.31
2017-01-17T14:33:08.555Z,924.32
2017-01-17T14:33:23.558Z,924.29
2017-01-17T14:33:38.696Z,924.31
2017-01-17T14:33:53.705Z,924.3
2017-01-17T14:34:08.731Z,924.34
2017-01-17T14:34:23.431Z,924.35
2017-01-17T14:34:38.430Z,924.34
2017-01-17T14:34:53.437Z,924.34
2017-01-17T14:35:08.605Z,924.3
2017-01-17T14:35:23.681Z,924.31
2017-01-17T14:35:38.630Z,924.34
2017-01-17T14:35:53.562Z,924.32
2017-01-17T14:36:08.847Z,924.36
2017-01-17T14:36:24.054Z,924.39
2017-01-17T14:36:38.963Z,924.39
2017-01-17T14:36:53.957Z,924.39
2017-01-17T14:37:08.884Z,924.36
2017-01-17T14:37:23.553Z,924.41
2017-01-17T14:37:38.420Z,924.42
2017-01-17T14:37:53.205Z,924.41
2017-01-17T14:38:08.388Z,924.4
2017-01-17T14:38:23.229Z,924.4
2017-01-17T14:38:38.028Z,924.36
2017-01-17T14:38:52.940Z,924.42
2017-01-17T14:39:07.809Z,924.44
2017-01-17T14:39:22.806Z,924.39
2017-01-17T14:39:37.592Z,924.39
2017-01-17T14:39:52.315Z,924.41
2017-01-17T14:40:07.218Z,924.37
2017-01-17T14:40:22.264Z,924.36
2017-01-17T14:40:36.914Z,924.4
2017-01-17T14:40:51.919Z,924.39
2017-01-17T14:41:06.668Z,924.37
2017-01-17T14:41:21.715Z,924.35
2017-01-17T14:41:36.709Z,924.36
2017-01-17T14:41:51.301Z,924.39
2017-01-17T14:42:06.198Z,924.36
2017-01-17T14:42:20.930Z,924.32
2017-01-17T14:42:35.685Z,924.39
2017-01-17T14:42:50.542Z,924.37
2017-01-17T14:43:05.372Z,924.36
2017-01-17T14:43:20.286Z,924.36
2017-01-17T14:43:34.993Z,924.36
2017-01-17T14:43:49.960Z,924.42
2017-01-17T14:44:04.820Z,924.39